Time;durP1;ratioP1;P1;durP2;ratioP2;P2;SDS_P1;SDS_P2;PMS_P1;PMS_P2;Temp;Humidity;BMP_temperature;BMP_pressure;BME280_temperature;BME280_humidity;BME280_pressure;Samples;Min_cycle;Max_cycle;Signal;HPM_P1;HPM_P2
2022/07/06 00:01:19;;;;;;;13.73;7.95;;;;;;;17.96;100.00;100035.31;4936831;29;20042;-75
2022/07/06 00:03:47;;;;;;;9.48;7.60;;;;;;;18.01;100.00;100041.94;4936581;29;20050;-75
2022/07/06 00:06:22;;;;;;;11.18;7.82;;;;;;;18.05;100.00;100030.84;4936693;29;20047;-76
2022/07/06 00:08:51;;;;;;;10.00;7.53;;;;;;;18.14;100.00;100030.84;4936216;29;20044;-76
2022/07/06 00:11:20;;;;;;;7.78;6.53;;;;;;;18.02;100.00;100021.22;4936280;29;20130;-76
2022/07/06 00:13:48;;;;;;;9.02;7.18;;;;;;;18.05;100.00;100026.34;4936041;29;20048;-75
2022/07/06 00:16:16;;;;;;;8.15;6.50;;;;;;;18.05;100.00;100033.56;4936354;29;20051;-76
2022/07/06 00:18:45;;;;;;;8.70;6.70;;;;;;;18.05;100.00;100031.75;4936093;29;20044;-81
2022/07/06 00:21:13;;;;;;;8.85;6.50;;;;;;;18.13;100.00;100029.13;4936412;29;20126;-76
2022/07/06 00:23:41;;;;;;;10.23;7.22;;;;;;;17.83;100.00;100022.09;4936395;29;20047;-75
2022/07/06 00:26:10;;;;;;;8.88;6.70;;;;;;;18.02;100.00;100034.72;4935977;29;20040;-75
2022/07/06 00:28:39;;;;;;;11.63;7.50;;;;;;;17.98;100.00;100026.06;4935900;29;20135;-75
2022/07/06 00:31:07;;;;;;;7.95;6.22;;;;;;;17.95;100.00;100030.88;4919036;29;20054;-75
2022/07/06 00:33:35;;;;;;;12.90;7.18;;;;;;;17.78;100.00;100035.19;4936043;29;20035;-75
2022/07/06 00:36:04;;;;;;;9.07;6.90;;;;;;;17.78;100.00;100028.94;4936072;29;20530;-76
2022/07/06 00:38:32;;;;;;;11.68;7.30;;;;;;;17.71;100.00;100040.28;4935934;29;20086;-78
2022/07/06 00:41:00;;;;;;;8.70;6.88;;;;;;;17.79;100.00;100042.28;4935657;29;20130;-78
2022/07/06 00:43:29;;;;;;;8.70;6.68;;;;;;;17.69;100.00;100036.00;4935863;29;20066;-77
2022/07/06 00:45:57;;;;;;;9.80;6.82;;;;;;;17.77;100.00;100038.03;4935673;29;20059;-75
2022/07/06 00:48:26;;;;;;;8.38;6.43;;;;;;;17.76;100.00;100039.00;4936139;29;20047;-76
2022/07/06 00:50:54;;;;;;;7.70;6.45;;;;;;;17.80;100.00;100033.19;4935726;29;20047;-76
2022/07/06 00:53:22;;;;;;;8.52;6.43;;;;;;;17.81;100.00;100034.03;4935289;29;20466;-77
2022/07/06 00:55:50;;;;;;;10.63;7.03;;;;;;;17.81;100.00;100034.88;4935542;29;20050;-77
2022/07/06 00:58:19;;;;;;;9.45;6.38;;;;;;;17.82;100.00;100025.78;4935994;29;20051;-76
2022/07/06 01:00:49;;;;;;;8.18;6.57;;;;;;;17.76;100.00;100012.03;4935630;29;20417;-78
2022/07/06 01:03:18;;;;;;;9.38;6.43;;;;;;;17.73;100.00;100018.56;4935903;29;20051;-76
2022/07/06 01:05:46;;;;;;;11.00;6.55;;;;;;;17.71;100.00;100016.00;4935938;29;20051;-78
2022/07/06 01:08:15;;;;;;;8.93;6.80;;;;;;;17.74;100.00;100023.81;4935918;29;20071;-77
2022/07/06 01:10:44;;;;;;;6.80;6.07;;;;;;;17.67;100.00;100017.28;4935942;29;20051;-77
2022/07/06 01:13:12;;;;;;;7.78;6.38;;;;;;;17.74;100.00;100028.34;4935543;29;20119;-77
2022/07/06 01:15:40;;;;;;;8.48;6.70;;;;;;;17.85;100.00;100035.44;4935543;29;20051;-76
2022/07/06 01:18:12;;;;;;;7.75;6.25;;;;;;;17.89;100.00;100043.13;4935371;29;20134;-78
2022/07/06 01:20:41;;;;;;;9.73;6.47;;;;;;;17.74;100.00;100023.81;4935700;29;20044;-78
2022/07/06 01:23:10;;;;;;;8.27;7.00;;;;;;;17.61;100.00;100022.38;4935474;29;20048;-78
2022/07/06 01:25:38;;;;;;;8.65;6.55;;;;;;;17.63;100.00;100017.69;4935743;29;20466;-77
2022/07/06 01:28:06;;;;;;;7.95;7.00;;;;;;;17.55;100.00;100013.00;4935163;29;20099;-77
2022/07/06 01:30:34;;;;;;;9.88;6.55;;;;;;;17.65;100.00;100011.16;4935579;29;20425;-77
2022/07/06 01:33:04;;;;;;;10.95;6.90;;;;;;;17.65;100.00;100011.16;4935116;29;20052;-78
2022/07/06 01:35:36;;;;;;;9.43;6.60;;;;;;;17.72;100.00;100020.41;4935382;29;20039;-78
2022/07/06 01:38:06;;;;;;;8.38;6.97;;;;;;;17.58;100.00;100015.44;4918566;29;20086;-75
2022/07/06 01:40:34;;;;;;;8.45;6.43;;;;;;;17.57;100.00;100016.44;4935374;29;20130;-75
2022/07/06 01:43:02;;;;;;;8.40;6.63;;;;;;;17.57;100.00;100027.22;4935272;29;20048;-75
2022/07/06 01:45:33;;;;;;;8.02;6.88;;;;;;;17.53;100.00;100017.69;4935347;29;20075;-76
2022/07/06 01:48:01;;;;;;;10.07;6.80;;;;;;;17.66;100.00;100031.75;4935325;29;20078;-75
2022/07/06 01:50:29;;;;;;;7.88;6.88;;;;;;;17.62;100.00;100024.06;4935261;29;20104;-75
2022/07/06 01:53:00;;;;;;;8.13;5.95;;;;;;;17.57;100.00;100035.31;4935440;29;20134;-76
2022/07/06 01:55:30;;;;;;;7.97;7.07;;;;;;;17.60;100.00;100029.63;4935277;29;20409;-76
2022/07/06 01:57:58;;;;;;;7.88;6.38;;;;;;;17.62;100.00;100046.50;4935055;29;20390;-76
2022/07/06 02:00:26;;;;;;;9.80;6.93;;;;;;;17.59;100.00;100029.78;4935503;29;20130;-77
2022/07/06 02:02:54;;;;;;;7.40;6.57;;;;;;;17.64;100.00;100028.31;4935094;29;20044;-77
2022/07/06 02:05:22;;;;;;;8.57;6.45;;;;;;;17.57;100.00;100032.63;4937755;29;20069;-78
2022/07/06 02:07:51;;;;;;;9.95;6.65;;;;;;;17.60;100.00;100031.47;4938293;29;20043;-83
2022/07/06 02:10:19;;;;;;;8.93;6.55;;;;;;;17.66;100.00;100045.25;4938712;29;20058;-77
2022/07/06 02:12:48;;;;;;;8.07;6.60;;;;;;;17.63;100.00;100042.81;4938630;29;20040;-77
2022/07/06 02:15:17;;;;;;;8.65;6.40;;;;;;;17.61;100.00;100041.25;4938589;29;20405;-77
2022/07/06 02:17:45;;;;;;;10.82;6.57;;;;;;;17.63;100.00;100045.50;4938389;29;20043;-78
2022/07/06 02:20:13;;;;;;;7.40;6.20;;;;;;;17.40;100.00;100041.41;4938083;29;20079;-77
2022/07/06 02:22:41;;;;;;;8.70;6.93;;;;;;;17.27;100.00;100038.09;4938085;29;20055;-78
2022/07/06 02:25:10;;;;;;;9.20;6.75;;;;;;;17.31;100.00;100040.41;4937975;29;20472;-74
2022/07/06 02:27:40;;;;;;;9.25;6.63;;;;;;;17.36;100.00;100042.66;4938456;29;20048;-74
2022/07/06 02:30:11;;;;;;;8.38;6.47;;;;;;;17.49;100.00;100051.34;4937928;29;20055;-74
2022/07/06 02:32:39;;;;;;;8.45;7.15;;;;;;;17.41;100.00;100054.72;4938293;29;20122;-73
2022/07/06 02:35:08;;;;;;;9.30;7.00;;;;;;;17.40;100.00;100055.72;4937968;29;20437;-76
2022/07/06 02:37:36;;;;;;;9.70;6.85;;;;;;;17.43;100.00;100046.50;4938503;29;20036;-75
2022/07/06 02:40:05;;;;;;;8.10;7.30;;;;;;;17.28;100.00;100056.00;4938032;29;20449;-74
2022/07/06 02:42:34;;;;;;;8.60;7.07;;;;;;;17.42;100.00;100047.50;4938111;29;20439;-74
2022/07/06 02:45:03;;;;;;;14.20;7.78;;;;;;;17.45;100.00;100056.16;4937948;29;20410;-73
2022/07/06 02:47:32;;;;;;;9.88;7.85;;;;;;;17.48;100.00;100063.13;4938041;29;20063;-73
2022/07/06 02:50:00;;;;;;;11.70;7.68;;;;;;;17.40;100.00;100057.56;4937944;29;20116;-73
2022/07/06 02:52:29;;;;;;;9.18;7.38;;;;;;;17.53;100.00;100065.38;4937862;29;20052;-73
2022/07/06 02:54:57;;;;;;;9.07;8.00;;;;;;;17.39;100.00;100069.34;4937831;29;20110;-75
2022/07/06 02:57:25;;;;;;;9.68;7.72;;;;;;;17.46;100.00;100073.16;4937804;29;20048;-75
2022/07/06 02:59:54;;;;;;;11.10;8.52;;;;;;;17.51;100.00;100072.78;4937885;29;20071;-81
2022/07/06 03:02:22;;;;;;;9.52;8.20;;;;;;;17.47;100.00;100074.91;4937546;29;20051;-75
2022/07/06 03:04:52;;;;;;;9.80;8.48;;;;;;;17.48;100.00;100089.25;4937514;29;20111;-75
2022/07/06 03:07:20;;;;;;;11.70;8.10;;;;;;;17.41;100.00;100076.31;4937841;29;20103;-75
2022/07/06 03:09:48;;;;;;;9.52;8.38;;;;;;;17.40;100.00;100082.69;4937705;29;20078;-75
2022/07/06 03:12:17;;;;;;;12.20;8.98;;;;;;;17.32;100.00;100089.78;4937531;29;20686;-76
2022/07/06 03:14:45;;;;;;;11.02;8.68;;;;;;;17.49;100.00;100093.63;4937141;29;20123;-75
2022/07/06 03:17:13;;;;;;;9.77;8.35;;;;;;;17.48;100.00;100087.38;4919429;29;20055;-74
2022/07/06 03:19:41;;;;;;;10.77;8.77;;;;;;;17.44;100.00;100083.25;4937764;29;20446;-75
2022/07/06 03:22:11;;;;;;;10.82;8.48;;;;;;;17.47;100.00;100091.09;4937053;29;20048;-76
2022/07/06 03:24:39;;;;;;;10.20;8.18;;;;;;;17.55;100.00;100085.81;4937334;29;20103;-77
2022/07/06 03:27:07;;;;;;;10.57;8.60;;;;;;;17.65;100.00;100094.75;4937049;29;20083;-76
2022/07/06 03:29:35;;;;;;;11.50;8.48;;;;;;;17.71;100.00;100094.25;4937378;29;20055;-76
2022/07/06 03:32:04;;;;;;;9.40;8.07;;;;;;;17.67;100.00;100100.91;4937149;29;20126;-74
2022/07/06 03:34:33;;;;;;;8.73;7.78;;;;;;;17.62;100.00;100105.84;4937346;29;20060;-74
2022/07/06 03:37:01;;;;;;;9.52;8.25;;;;;;;17.61;100.00;100108.69;4937089;29;20433;-77
2022/07/06 03:39:30;;;;;;;10.27;8.63;;;;;;;17.59;100.00;100106.13;4937109;29;20040;-77
2022/07/06 03:41:58;;;;;;;10.98;8.68;;;;;;;17.57;100.00;100108.13;4936678;29;20457;-79
2022/07/06 03:44:27;;;;;;;9.95;8.50;;;;;;;18.17;100.00;100111.53;4937328;29;20125;-76
2022/07/06 03:46:55;;;;;;;9.55;7.63;;;;;;;19.15;100.00;100118.34;4920245;29;20489;-77
2022/07/06 03:49:26;;;;;;;11.50;7.10;;;;;;;18.72;100.00;100111.72;4936734;29;20051;-77
2022/07/06 03:51:55;;;;;;;9.43;7.50;;;;;;;18.60;100.00;100104.75;4937401;29;20104;-78
2022/07/06 03:54:23;;;;;;;10.85;7.90;;;;;;;18.28;100.00;100097.88;4936809;29;20058;-78
2022/07/06 03:56:52;;;;;;;8.65;7.43;;;;;;;18.11;100.00;100103.16;4936672;29;20050;-78
2022/07/06 03:59:22;;;;;;;9.93;7.38;;;;;;;17.95;100.00;100106.44;4937030;29;20043;-77
2022/07/06 04:01:52;;;;;;;9.27;7.38;;;;;;;17.94;100.00;100104.72;4936529;29;20394;-78
2022/07/06 04:04:20;;;;;;;9.65;7.13;;;;;;;17.87;100.00;100106.31;4936278;29;20080;-78
2022/07/06 04:06:49;;;;;;;8.25;7.03;;;;;;;17.95;100.00;100112.72;4936569;29;20086;-78
2022/07/06 04:09:17;;;;;;;9.75;6.80;;;;;;;17.75;100.00;100097.50;4936819;29;20054;-77
2022/07/06 04:11:45;;;;;;;10.75;7.97;;;;;;;18.21;100.00;100101.31;4936659;29;20048;-80
2022/07/06 04:14:15;;;;;;;8.55;7.38;;;;;;;17.94;100.00;100104.72;4936367;29;20043;-79
2022/07/06 04:16:43;;;;;;;10.32;7.25;;;;;;;19.80;100.00;100110.97;4936251;29;20046;-77
2022/07/06 04:19:11;;;;;;;8.88;6.43;;;;;;;19.99;100.00;100108.09;4936194;29;20051;-76
2022/07/06 04:21:39;;;;;;;7.70;6.20;;;;;;;21.82;100.00;100103.28;4936817;29;20139;-78
2022/07/06 04:24:08;;;;;;;7.28;6.10;;;;;;;21.75;100.00;100096.81;4936402;29;20091;-78
2022/07/06 04:26:36;;;;;;;7.70;5.28;;;;;;;23.12;100.00;100100.38;4936217;29;20048;-77
2022/07/06 04:29:04;;;;;;;6.55;5.63;;;;;;;23.17;100.00;100098.00;4936093;29;20122;-77
2022/07/06 04:31:34;;;;;;;10.40;5.30;;;;;;;23.18;100.00;100107.84;4935970;29;20490;-77
2022/07/06 04:34:03;;;;;;;9.95;5.03;;;;;;;23.08;100.00;100099.06;4936077;29;20101;-79
2022/07/06 04:36:31;;;;;;;7.50;4.72;;;;;;;21.96;100.00;100092.59;4935885;29;20099;-77
2022/07/06 04:38:59;;;;;;;6.82;4.82;;;;;;;23.17;100.00;100102.59;4936021;29;20075;-78
2022/07/06 04:41:27;;;;;;;5.90;4.97;;;;;;;21.83;100.00;100105.81;4936117;29;20099;-77
2022/07/06 04:43:55;;;;;;;7.55;4.85;;;;;;;23.05;100.00;100096.66;4936284;29;20070;-77
2022/07/06 04:46:24;;;;;;;5.82;4.50;;;;;;;23.80;100.00;100093.38;4935999;29;20051;-77
2022/07/06 04:48:54;;;;;;;8.88;4.90;;;;;;;23.10;100.00;100097.00;4936029;29;20039;-78
2022/07/06 04:51:22;;;;;;;7.50;4.47;;;;;;;23.67;100.00;100091.28;4935894;29;20058;-77
2022/07/06 04:53:50;;;;;;;5.38;4.00;;;;;;;24.21;100.00;100096.63;4935842;29;20046;-76
2022/07/06 04:56:18;;;;;;;6.00;4.32;;;;;;;23.32;100.00;100104.38;4935595;29;20052;-78
2022/07/06 04:58:47;;;;;;;7.78;4.88;;;;;;;23.43;100.00;100103.13;4935753;29;20490;-77
2022/07/06 05:01:15;;;;;;;5.93;4.28;;;;;;;24.24;100.00;100101.72;4935853;29;20043;-76
2022/07/06 05:03:43;;;;;;;7.97;4.82;;;;;;;24.21;100.00;100105.63;4935848;29;20103;-74
2022/07/06 05:06:13;;;;;;;5.93;4.00;;;;;;;24.02;100.00;100100.69;4935627;29;20156;-74
2022/07/06 05:08:41;;;;;;;6.63;4.20;;;;;;;24.69;100.00;100091.75;4935625;29;20046;-77
2022/07/06 05:11:09;;;;;;;7.22;4.00;;;;;;;25.59;100.00;100100.53;4935657;29;20050;-80
2022/07/06 05:13:38;;;;;;;6.40;4.00;;;;;;;24.89;100.00;100092.88;4918627;29;20051;-77
2022/07/06 05:16:06;;;;;;;8.02;3.80;;;;;;;25.42;100.00;100093.59;4935215;29;20043;-72
2022/07/06 05:18:35;;;;;;;7.22;3.58;;;;;;;25.54;100.00;100097.50;4935760;29;20075;-71
2022/07/06 05:21:03;;;;;;;6.75;3.60;;;;;;;25.77;100.00;100101.97;4935428;29;20501;-77
2022/07/06 05:23:33;;;;;;;6.10;3.70;;;;;;;26.50;100.00;100109.81;4935806;29;20404;-71
2022/07/06 05:26:01;;;;;;;5.97;3.88;;;;;;;25.89;100.00;100108.63;4935325;29;20494;-71
2022/07/06 05:28:29;;;;;;;6.50;3.70;;;;;;;25.02;100.00;100122.28;4935379;29;20044;-72
2022/07/06 05:31:03;;;;;;;5.82;3.88;;;;;;;25.55;100.00;100137.44;4935441;29;20493;-73
2022/07/06 05:33:31;;;;;;;6.13;3.55;;;;;;;25.46;100.00;100127.66;4935692;29;20050;-71
2022/07/06 05:35:59;;;;;;;6.85;3.50;;;;;;;27.17;100.00;100122.06;4935543;29;20471;-68
2022/07/06 05:38:27;;;;;;;6.75;3.38;;;;;;;27.27;100.00;100124.41;4935096;29;20102;-70
2022/07/06 05:40:57;;;;;;;4.55;3.28;;;;;;;26.93;100.00;100119.81;4938825;29;20044;-71
2022/07/06 05:43:25;;;;;;;5.57;3.65;;;;;;;26.67;100.00;100115.00;4938531;29;20047;-71
2022/07/06 05:45:53;;;;;;;4.82;3.30;;;;;;;26.94;100.00;100129.69;4938928;29;20044;-70
2022/07/06 05:51:08;;;;;;;6.75;3.72;;;;;;;26.87;100.00;100126.06;4938686;29;20040;-71
2022/07/06 05:53:36;;;;;;;7.10;3.63;;;;;;;26.92;100.00;100135.34;4938943;29;20043;-71
2022/07/06 05:56:06;;;;;;;8.63;3.45;;;;;;;27.59;100.00;100131.06;4938875;29;20102;-69
2022/07/06 05:58:35;;;;;;;6.18;3.50;;;;;;;27.78;100.00;100137.69;4921809;29;20075;-70
2022/07/06 06:01:03;;;;;;;7.28;3.70;;;;;;;28.18;100.00;100142.22;4938713;29;20098;-70
2022/07/06 06:03:31;;;;;;;5.70;3.22;;;;;;;28.15;82.00;100136.28;4929010;29;20098;-71
2022/07/06 06:05:59;;;;;;;6.18;3.20;;;;;;;28.39;73.95;100143.09;4947939;29;20050;-72
2022/07/06 06:08:28;;;;;;;7.13;3.30;;;;;;;27.46;73.94;100139.25;4946454;29;20130;-72
2022/07/06 06:10:56;;;;;;;5.38;3.28;;;;;;;27.82;72.82;100148.06;4949368;29;20046;-72
2022/07/06 06:13:26;;;;;;;4.72;3.22;;;;;;;27.04;74.45;100160.31;4949049;29;20040;-72
2022/07/06 06:15:54;;;;;;;5.97;3.28;;;;;;;27.32;73.07;100150.16;4946522;29;20047;-71
2022/07/06 06:18:22;;;;;;;4.75;3.30;;;;;;;28.01;68.37;100167.50;4951650;29;20154;-69
2022/07/06 06:20:51;;;;;;;4.88;3.00;;;;;;;28.22;64.03;100159.09;4957544;29;20043;-70
2022/07/06 06:23:19;;;;;;;6.10;3.45;;;;;;;27.82;64.31;100164.50;4957347;29;20043;-68
2022/07/06 06:25:47;;;;;;;4.65;3.50;;;;;;;27.83;63.95;100166.19;4940347;29;20416;-69
2022/07/06 06:28:16;;;;;;;4.55;3.13;;;;;;;28.61;61.47;100157.44;4957009;29;20106;-69
2022/07/06 06:30:45;;;;;;;5.63;3.70;;;;;;;28.40;57.60;100156.59;4948635;29;20047;-68
2022/07/06 06:33:16;;;;;;;6.03;3.80;;;;;;;28.10;59.87;100160.75;4944109;29;20062;-70
2022/07/06 06:35:45;;;;;;;5.20;3.47;;;;;;;28.26;59.47;100154.00;4952368;28;20063;-70
2022/07/06 06:38:14;;;;;;;6.13;3.70;;;;;;;28.94;56.55;100149.19;4949128;29;20043;-75
2022/07/06 06:40:42;;;;;;;6.43;3.70;;;;;;;28.79;52.06;100154.91;4957124;29;20055;-74
2022/07/06 06:43:11;;;;;;;6.38;3.97;;;;;;;28.70;52.58;100158.91;4956732;29;20476;-72
2022/07/06 06:45:40;;;;;;;5.50;3.80;;;;;;;28.73;52.26;100159.31;4956993;29;20441;-72
2022/07/06 06:48:10;;;;;;;6.60;4.10;;;;;;;28.75;51.37;100164.59;4957009;29;20499;-76
2022/07/06 06:50:58;;;;;;;7.40;4.03;;;;;;;29.58;50.17;100162.13;4955938;28;20452;-70
2022/07/06 06:53:26;;;;;;;7.00;3.78;;;;;;;28.70;51.45;100167.16;4947664;29;20553;-70
2022/07/06 06:55:54;;;;;;;6.10;3.90;;;;;;;29.67;47.83;100181.97;4954433;29;20082;-72
2022/07/06 06:58:22;;;;;;;7.07;3.88;;;;;;;29.26;49.91;100166.66;4956565;29;20053;-74
2022/07/06 07:00:51;;;;;;;7.03;3.83;;;;;;;29.43;49.47;100180.72;4956780;29;20071;-72
2022/07/06 07:03:20;;;;;;;6.50;4.20;;;;;;;28.52;51.07;100187.81;4940411;29;20075;-71
2022/07/06 07:05:49;;;;;;;5.22;3.80;;;;;;;26.68;58.33;100188.66;4937509;29;20044;-72
2022/07/06 07:08:17;;;;;;;7.20;4.50;;;;;;;26.27;58.74;100182.16;4936645;29;20118;-73
2022/07/06 07:10:45;;;;;;;5.93;4.25;;;;;;;26.11;60.10;100197.78;4937436;29;20114;-72
2022/07/06 07:13:13;;;;;;;5.20;4.18;;;;;;;25.51;61.54;100185.28;4937428;29;20044;-72
2022/07/06 07:15:41;;;;;;;4.97;4.00;;;;;;;25.51;65.70;100179.81;4920547;29;20052;-72
2022/07/06 07:18:10;;;;;;;5.50;3.95;;;;;;;25.59;62.80;100189.81;4937186;29;20054;-71
2022/07/06 07:20:44;;;;;;;6.40;4.05;;;;;;;25.40;65.35;100194.81;4937321;29;20564;-72
2022/07/06 07:23:12;;;;;;;6.30;4.60;;;;;;;25.63;63.17;100185.63;4937208;29;20036;-71
2022/07/06 07:25:41;;;;;;;5.93;4.10;;;;;;;24.34;71.82;100181.38;4937363;29;20043;-72
2022/07/06 07:28:09;;;;;;;5.82;4.20;;;;;;;25.03;67.81;100189.44;4936981;29;20056;-72
2022/07/06 07:30:38;;;;;;;5.50;3.58;;;;;;;25.04;66.56;100193.88;4937004;29;20051;-72
2022/07/06 07:33:06;;;;;;;5.75;3.95;;;;;;;25.64;62.91;100193.63;4920224;29;20409;-72
2022/07/06 07:35:35;;;;;;;6.13;3.85;;;;;;;25.71;62.07;100198.38;4936739;29;20134;-71
2022/07/06 07:38:05;;;;;;;5.55;3.90;;;;;;;25.15;63.88;100198.00;4919666;29;20058;-71
2022/07/06 07:40:35;;;;;;;7.72;4.22;;;;;;;25.61;63.37;100187.72;4936783;29;20052;-71
2022/07/06 07:43:03;;;;;;;4.72;3.60;;;;;;;25.90;63.87;100195.03;4937083;29;20044;-72
2022/07/06 07:45:31;;;;;;;6.47;4.25;;;;;;;25.32;65.90;100196.78;4936414;29;20613;-72
2022/07/06 07:48:00;;;;;;;5.72;4.05;;;;;;;24.76;68.74;100201.78;4936689;29;20050;-72
2022/07/06 07:50:29;;;;;;;8.00;4.15;;;;;;;25.21;66.14;100200.00;4919631;29;20163;-72
2022/07/06 07:52:57;;;;;;;6.22;4.10;;;;;;;25.16;67.04;100191.50;4936738;29;20059;-71
2022/07/06 07:55:27;;;;;;;5.55;4.28;;;;;;;25.38;65.11;100196.00;4936700;29;20446;-72
2022/07/06 07:58:08;;;;;;;;;;;;;;;25.73;60.68;100196.28;4920083;29;20075;-72
2022/07/06 08:00:37;;;;;;;5.78;3.25;;;;;;;25.43;62.16;100198.19;4936437;29;19962;-72
2022/07/06 08:03:05;;;;;;;5.85;3.58;;;;;;;25.06;62.74;100194.53;4936456;29;20111;-71
2022/07/06 08:05:33;;;;;;;5.15;3.42;;;;;;;25.23;62.10;100196.03;4936282;29;20134;-71
2022/07/06 08:08:02;;;;;;;4.68;3.17;;;;;;;25.17;60.08;100210.44;4936626;29;20500;-72
2022/07/06 08:10:32;;;;;;;4.90;3.45;;;;;;;24.90;62.30;100211.91;4919226;29;20425;-72
2022/07/06 08:13:19;;;;;;;5.20;3.03;;;;;;;25.10;60.83;100199.44;4936420;29;20066;-73
2022/07/06 08:15:47;;;;;;;5.18;3.05;;;;;;;25.21;59.82;100211.75;4937272;29;20050;-72
2022/07/06 08:18:15;;;;;;;3.47;2.75;;;;;;;25.16;59.31;100208.72;4919164;29;20047;-73
2022/07/06 08:20:44;;;;;;;4.10;2.92;;;;;;;25.14;58.18;100204.50;4936101;29;20044;-73
2022/07/06 08:23:34;;;;;;;5.10;2.80;;;;;;;25.02;58.71;100206.84;4935845;29;20115;-72
2022/07/06 08:26:04;;;;;;;3.60;2.55;;;;;;;25.29;58.56;100213.56;4919474;29;20110;-73
2022/07/06 08:28:32;;;;;;;6.05;3.85;;;;;;;25.21;59.33;100210.91;4935986;29;20482;-71
2022/07/06 08:31:01;;;;;;;3.83;2.83;;;;;;;25.18;58.88;100216.72;4919147;29;20066;-72
2022/07/06 08:33:29;;;;;;;3.97;2.55;;;;;;;25.40;58.23;100221.25;4935643;29;20048;-71
2022/07/06 08:35:57;;;;;;;3.22;2.30;;;;;;;25.43;55.00;100233.69;4935887;29;20048;-72
2022/07/06 08:38:25;;;;;;;4.03;2.60;;;;;;;25.26;56.22;100219.38;4935866;29;20044;-72
2022/07/06 08:40:56;;;;;;;3.83;2.80;;;;;;;25.49;56.07;100220.13;4936131;29;20493;-72
2022/07/06 08:43:26;;;;;;;4.55;2.80;;;;;;;25.51;56.62;100228.97;4935529;29;20051;-72
2022/07/06 08:45:55;;;;;;;4.25;2.75;;;;;;;25.82;54.82;100222.47;4935922;29;20127;-72
2022/07/06 08:48:25;;;;;;;4.95;2.70;;;;;;;25.79;53.65;100236.50;4935618;29;20048;-72
2022/07/06 08:50:54;;;;;;;3.13;2.15;;;;;;;25.84;51.31;100234.03;4935695;29;20050;-72
2022/07/06 08:53:23;;;;;;;5.20;2.42;;;;;;;25.91;51.57;100229.50;4935546;29;20564;-73
2022/07/06 08:55:52;;;;;;;3.30;2.50;;;;;;;25.82;52.53;100220.56;4935999;29;20111;-72
2022/07/06 08:58:21;;;;;;;4.93;2.45;;;;;;;25.84;52.15;100214.91;4935368;29;20050;-73
2022/07/06 09:00:51;;;;;;;3.92;2.55;;;;;;;26.25;50.58;100234.31;4935577;29;20146;-72
2022/07/06 09:03:20;;;;;;;3.67;2.60;;;;;;;26.22;50.66;100216.38;4935816;29;20556;-72
2022/07/06 09:05:51;;;;;;;4.65;2.40;;;;;;;26.50;48.51;100215.66;4918699;29;20055;-72
2022/07/06 09:08:24;;;;;;;3.80;2.20;;;;;;;26.20;50.57;100217.63;4935541;29;20055;-73
2022/07/06 09:10:52;;;;;;;4.35;2.70;;;;;;;26.23;50.78;100219.97;4935618;29;20383;-72
2022/07/06 09:13:20;;;;;;;4.70;2.80;;;;;;;25.94;51.60;100213.56;4935198;29;20058;-72
2022/07/06 09:15:52;;;;;;;6.82;2.75;;;;;;;25.82;50.87;100219.72;4939432;29;20106;-72
2022/07/06 09:18:37;;;;;;;3.83;2.70;;;;;;;25.87;50.91;100209.94;4939280;29;20476;-72
2022/07/06 09:21:06;;;;;;;5.10;2.97;;;;;;;25.95;50.73;100211.66;4939452;29;20127;-72
2022/07/06 09:23:35;;;;;;;5.38;3.17;;;;;;;26.09;51.22;100210.78;4939003;29;20039;-72
2022/07/06 09:26:04;;;;;;;5.70;3.10;;;;;;;26.19;50.61;100205.84;4939627;29;20102;-72
2022/07/06 09:28:43;;;;;;;4.65;3.10;;;;;;;25.95;51.19;100211.66;4938983;29;20125;-72
2022/07/06 09:31:13;;;;;;;6.60;3.22;;;;;;;26.06;49.97;100210.34;4922327;29;20083;-71
2022/07/06 09:33:54;;;;;;;;;;;;;;;26.26;49.70;100216.88;4939828;29;20052;-71
2022/07/06 09:36:44;;;;;;;4.90;3.33;;;;;;;26.03;48.47;100217.03;4939504;29;20013;-73
2022/07/06 09:39:20;;;;;;;4.40;3.30;;;;;;;26.48;48.55;100212.25;4939118;29;20047;-73
2022/07/06 09:41:50;;;;;;;6.57;3.00;;;;;;;26.32;48.30;100204.28;4939506;29;20047;-71
2022/07/06 09:44:23;;;;;;;5.53;3.20;;;;;;;26.52;48.10;100210.81;4939018;29;20103;-72
2022/07/06 09:46:56;;;;;;;4.75;3.50;;;;;;;26.41;48.63;100222.28;4938852;29;20048;-72
2022/07/06 09:49:25;;;;;;;5.20;3.35;;;;;;;26.22;47.42;100229.22;4938715;29;20485;-72
2022/07/06 09:51:55;;;;;;;4.93;3.35;;;;;;;26.22;49.16;100216.38;4938940;29;20043;-72
2022/07/06 09:54:24;;;;;;;5.85;3.78;;;;;;;26.65;48.81;100216.41;4938611;29;20051;-72
2022/07/06 09:56:54;;;;;;;6.00;3.47;;;;;;;26.57;47.67;100213.81;4938602;29;20401;-72
2022/07/06 09:59:26;;;;;;;6.45;3.50;;;;;;;26.78;47.45;100221.16;4938455;29;20042;-73
2022/07/06 10:01:57;;;;;;;6.30;3.50;;;;;;;26.82;46.86;100206.84;4938698;29;20047;-72
2022/07/06 10:04:27;;;;;;;4.47;3.35;;;;;;;26.68;45.64;100221.50;4938340;29;20544;-72
2022/07/06 10:06:56;;;;;;;6.13;3.67;;;;;;;26.75;47.59;100214.19;4921694;29;20075;-72
2022/07/06 10:09:26;;;;;;;6.57;3.38;;;;;;;26.82;46.76;100216.97;4938211;29;20048;-72
2022/07/06 10:11:56;;;;;;;7.93;3.47;;;;;;;26.81;44.92;100207.91;4938483;29;20128;-72
2022/07/06 10:14:27;;;;;;;5.65;3.40;;;;;;;26.72;44.65;100220.03;4938122;29;20134;-72
2022/07/06 10:16:59;;;;;;;4.80;3.40;;;;;;;26.80;45.12;100221.78;4938705;29;20043;-72
2022/07/06 10:19:29;;;;;;;5.18;3.58;;;;;;;26.97;44.39;100214.13;4938222;29;20401;-72
2022/07/06 10:22:00;;;;;;;4.93;3.45;;;;;;;27.11;43.86;100210.47;4938653;29;20058;-72
2022/07/06 10:24:43;;;;;;;6.47;3.40;;;;;;;27.23;43.38;100213.50;4938436;29;20044;-73
2022/07/06 10:27:17;;;;;;;5.75;3.40;;;;;;;27.38;43.32;100197.78;4938478;29;20043;-72
2022/07/06 10:29:45;;;;;;;4.40;3.20;;;;;;;27.28;43.83;100198.16;4937638;29;20115;-72
2022/07/06 10:32:20;;;;;;;5.03;3.55;;;;;;;27.12;43.37;100212.19;4938007;29;20131;-72
2022/07/06 10:34:48;;;;;;;5.88;3.55;;;;;;;26.99;44.33;100210.16;4938280;29;20473;-72
2022/07/06 10:37:25;;;;;;;5.05;3.53;;;;;;;26.72;43.09;100209.09;4937945;29;20048;-72
2022/07/06 10:42:43;;;;;;;5.10;3.67;;;;;;;27.47;41.98;100212.16;4920798;29;20410;-71
2022/07/06 10:45:13;;;;;;;5.20;3.42;;;;;;;27.70;40.88;100210.00;4938008;29;20499;-72
2022/07/06 10:47:43;;;;;;;4.93;3.05;;;;;;;27.55;40.57;100209.25;4937828;29;20485;-72
2022/07/06 10:50:13;;;;;;;5.53;3.17;;;;;;;27.41;39.74;100210.22;4937919;29;20056;-72
2022/07/06 10:52:53;;;;;;;4.05;3.17;;;;;;;27.53;40.30;100209.44;4920347;29;20086;-72
2022/07/06 10:55:32;;;;;;;4.43;3.22;;;;;;;27.60;39.96;100203.97;4920717;29;20627;-72
2022/07/06 10:58:01;;;;;;;4.88;3.60;;;;;;;27.66;39.17;100214.16;4937918;29;20083;-72
2022/07/06 11:00:49;;;;;;;5.90;3.50;;;;;;;27.97;38.43;100221.88;4920502;29;20060;-73
2022/07/06 11:03:37;;;;;;;6.03;3.55;;;;;;;27.94;37.84;100217.66;4920656;29;20071;-72
2022/07/06 11:06:08;;;;;;;5.95;3.60;;;;;;;27.48;39.30;100205.63;4921007;29;20138;-71
2022/07/06 11:08:52;;;;;;;5.35;3.30;;;;;;;27.81;37.04;100206.66;4937595;29;20048;-71
2022/07/06 11:11:23;;;;;;;4.70;3.42;;;;;;;27.55;37.04;100209.25;4937536;29;20140;-73
2022/07/06 11:13:57;;;;;;;4.70;3.00;;;;;;;27.45;36.90;100206.88;4920264;29;20059;-72
2022/07/06 11:16:27;;;;;;;4.45;3.20;;;;;;;27.81;35.90;100209.41;4937164;29;20173;-73
2022/07/06 11:19:09;;;;;;;5.53;3.65;;;;;;;27.89;36.01;100201.00;4920584;29;20086;-71
2022/07/06 11:21:40;;;;;;;5.50;3.33;;;;;;;27.89;35.74;100197.38;4937473;29;20050;-72
2022/07/06 11:24:09;;;;;;;5.80;3.22;;;;;;;28.22;35.17;100213.94;4937253;29;20040;-73
2022/07/06 11:26:38;;;;;;;4.35;3.20;;;;;;;28.12;34.85;100208.00;4920177;29;20052;-72
2022/07/06 11:29:10;;;;;;;4.50;3.00;;;;;;;28.29;32.63;100212.09;4937145;29;20060;-71
2022/07/06 11:31:41;;;;;;;5.50;2.95;;;;;;;28.11;32.61;100214.53;4937257;29;20051;-72
2022/07/06 11:34:13;;;;;;;4.45;3.10;;;;;;;28.03;33.14;100220.22;4920288;29;20052;-73
2022/07/06 11:36:42;;;;;;;;;;;;;;;27.77;35.14;100210.84;4936592;29;20489;-72
2022/07/06 11:39:13;;;;;;;6.82;2.90;;;;;;;27.82;33.73;100200.13;4936750;29;19923;-73